Snag, Canada
Current Conditions -  °F | °C
As of 9:53 PM on Tuesday 25 Nov 2014 (Local Time) from PAOR Reporting Station
Light Snow Light Snow  
Wind Chill:   Ceiling: 4700
Heat Index:   Visibility: 6mi
Dew Point: -5°   Wind: 0mph
Humidity: 79%   Direction: NA
Pressure: 30.29"   Gusts: NA
Location:  62.38°N, 140.37°W
Report Text: PAOR 260553Z 00000KT 6SM -SN OVC047 M18/M21 A3029 RMK AO2 SLP332 T11781206 11178 21206 53013
Loading
Personal Weather Stations






























Interactive Weather Map New forecast layout! Learn more

10-Day Weather Forecast

Advertisements
Track Severe Weather on mobile